WetterOnline ( https://www.wetteronline.de )

Wetter aktuell Arkona

Aktuelles Wetter: Kap Arkona/Rügen (42m)

6-stündlich | Neueste Meldungen
Ortszeit Temperatur Wetter
Fr, 06.12. 19:00 4.3° C leichter Regen
Fr, 06.12. 13:00 5.0° C bedeckt
Fr, 06.12. 7:00 3.3° C bedeckt
Fr, 06.12. 1:00 2.9° C bedeckt
Do, 05.12. 19:00 2.2° C wolkig
Do, 05.12. 13:00 5.3° C leicht bewölkt
Do, 05.12. 7:00 4.7° C bedeckt
Do, 05.12. 1:00 4.9° C bedeckt
Ortszeit Temperatur Wetter
Fr, 06.12. 21:00 4.3° C bewölkt
Fr, 06.12. 20:40 4.3° C Sprühregen
Fr, 06.12. 20:30 4.3° C bewölkt
Fr, 06.12. 20:20 4.3° C bewölkt
Fr, 06.12. 20:10 4.3° C Sprühregen
Fr, 06.12. 20:00 4.3° C Regen
Fr, 06.12. 19:50 4.3° C bewölkt
Fr, 06.12. 19:30 4.3° C Sprühregen
Fr, 06.12. 19:00 4.3° C leichter Regen
Ortszeit Relative Feuchte Sichtweite
Fr, 06.12. 19:00 98% 5.0 km
Fr, 06.12. 13:00 97% 4.1 km
Fr, 06.12. 7:00 89% 9 km
Fr, 06.12. 1:00 88% 8 km
Do, 05.12. 19:00 90% 9 km
Do, 05.12. 13:00 84% 12 km
Do, 05.12. 7:00 93% 9 km
Do, 05.12. 1:00 87% 10 km
Ortszeit Relative Feuchte Sichtweite
Fr, 06.12. 21:00 98% 3.5 km
Fr, 06.12. 20:40 97% -
Fr, 06.12. 20:30 98% 5.0 km
Fr, 06.12. 20:20 98% -
Fr, 06.12. 20:10 97% -
Fr, 06.12. 20:00 98% 4.7 km
Fr, 06.12. 19:50 98% -
Fr, 06.12. 19:30 97% 3.7 km
Fr, 06.12. 19:00 98% 5.0 km
Ortszeit Niederschlagsmenge Niederschlagsart
Fr, 06.12. 19:00 0.1 l/m2 in 12 Std. Regen
Fr, 06.12. 13:00 0.1 l/m2 in 6 Std. Sprühregen
Fr, 06.12. 7:00 0.1 l/m2 in 12 Std. Schnee, Regen
Fr, 06.12. 1:00 0.0 l/m2 in 6 Std. -
Do, 05.12. 19:00 0.0 l/m2 in 12 Std. -
Do, 05.12. 13:00 0.0 l/m2 in 6 Std. -
Do, 05.12. 7:00 0.0 l/m2 in 12 Std. -
Do, 05.12. 1:00 0.0 l/m2 in 6 Std. -
Ortszeit Niederschlagsmenge Niederschlagsart
Fr, 06.12. 21:00 0.1 l/m2 in 1 Std. Sprühregen
Fr, 06.12. 20:40 keine Meldung -
Fr, 06.12. 20:30 0.1 l/m2 in 1 Std. Schnee
Fr, 06.12. 20:20 keine Meldung -
Fr, 06.12. 20:10 keine Meldung -
Fr, 06.12. 20:00 0.1 l/m2 in 1 Std. Regen
Fr, 06.12. 19:50 keine Meldung -
Fr, 06.12. 19:30 0.1 l/m2 in 1 Std. -
Fr, 06.12. 19:00 0.1 l/m2 in 1 Std. Regen
Ortszeit Stärke Spitze Richtung
km/h Bft. km/h Grad Sektor
Fr, 06.12. 19:00 40 6 58 220° SW
Fr, 06.12. 13:00 44 6 70 230° SW
Fr, 06.12. 7:00 50 7 68 230° SW
Fr, 06.12. 1:00 50 7 65 210° SW
Do, 05.12. 19:00 33 5 46 220° SW
Do, 05.12. 13:00 22 4 43 240° SW
Do, 05.12. 7:00 20 4 39 240° SW
Do, 05.12. 1:00 25 4 40 240° SW
Ortszeit Stärke Spitze Richtung
km/h Bft. km/h Grad Sektor
Fr, 06.12. 21:00 41 6 54 220° SW
Fr, 06.12. 20:40 43 6 - 210° SW
Fr, 06.12. 20:30 40 6 54 220° SW
Fr, 06.12. 20:20 40 6 - 220° SW
Fr, 06.12. 20:10 40 6 - 220° SW
Fr, 06.12. 20:00 40 6 50 220° SW
Fr, 06.12. 19:50 40 6 - 220° SW
Fr, 06.12. 19:30 40 6 50 210° SW
Fr, 06.12. 19:00 40 6 50 220° SW
Ortszeit Untergrenze Bedeckung Gattung
total tief tief mittel hoch
Fr, 06.12. 19:00 180 m 8/8 8/8 - - -
Fr, 06.12. 13:00 150 m 8/8 8/8 - - -
Fr, 06.12. 7:00 360 m 8/8 8/8 - - -
Fr, 06.12. 1:00 360 m 8/8 8/8 - - -
Do, 05.12. 19:00 9000 m 8/8 0/8 - - -
Do, 05.12. 13:00 270 m 3/8 3/8 - - -
Do, 05.12. 7:00 210 m 8/8 8/8 - - -
Do, 05.12. 1:00 360 m 8/8 8/8 - - -
Ortszeit Bedeckungsgrad in Achtel und Wolkenuntergrenze
Fr, 06.12. 21:00 7(150m)
Fr, 06.12. 20:40 7(150m)
Fr, 06.12. 20:30 7(150m) 8(270m)
Fr, 06.12. 20:20 7(150m)
Fr, 06.12. 20:10 8(180m)
Fr, 06.12. 20:00 7(150m)
Fr, 06.12. 19:50 7(150m)
Fr, 06.12. 19:30 8(150m)
Fr, 06.12. 19:00 8(180m)
Ortszeit Luftdruck NN (hPa) Tendenz (hPa in 3 Std.)
Fr, 06.12. 19:00 1001 - 1,1
Fr, 06.12. 13:00 1003 - 0,8
Fr, 06.12. 7:00 1003 - 1,2
Fr, 06.12. 1:00 1007 - 3,3
Do, 05.12. 19:00 1013 - 1,1
Do, 05.12. 13:00 1016 - 1,3
Do, 05.12. 7:00 1017 - 1,0
Do, 05.12. 1:00 1019 - 1,1
Ortszeit Luftdruck NN (hPa) Tendenz (hPa in 3 Std.)
Fr, 06.12. 21:00 1000 - 1,5
Fr, 06.12. 20:40 1000 keine Meldung
Fr, 06.12. 20:30 1000 - 1,1
Fr, 06.12. 20:20 1000 keine Meldung
Fr, 06.12. 20:10 1000 keine Meldung
Fr, 06.12. 20:00 1000 - 1,0
Fr, 06.12. 19:50 1000 keine Meldung
Fr, 06.12. 19:30 1001 - 0,9
Fr, 06.12. 19:00 1001 - 1,1
Ortszeit Schneehöhe (cm)
Fr, 06.12. 19:00 0
Fr, 06.12. 13:00 0
Fr, 06.12. 7:00 0
Fr, 06.12. 1:00 0
Do, 05.12. 19:00 0
Do, 05.12. 13:00 0
Do, 05.12. 7:00 0
Do, 05.12. 1:00 0
Ortszeit Schneehöhe (cm)
Fr, 06.12. 21:00 0
Fr, 06.12. 20:40 0
Fr, 06.12. 20:30 0
Fr, 06.12. 20:20 0
Fr, 06.12. 20:10 0
Fr, 06.12. 20:00 0
Fr, 06.12. 19:50 0
Fr, 06.12. 19:30 0
Fr, 06.12. 19:00 0
Link zu dieser Seite / Seite empfehlen

Das Wetter in ...